Time;durP1;ratioP1;P1;durP2;ratioP2;P2;SDS_P1;SDS_P2;PMS_P1;PMS_P2;Temp;Humidity;BMP_temperature;BMP_pressure;BME280_temperature;BME280_humidity;BME280_pressure;Samples;Min_cycle;Max_cycle;Signal;HPM_P1;HPM_P2
2022/07/01 00:00:38;;;;;;;6.00;2.03;;;14.60;99.90;;;;;;5041604;28;20045;-57
2022/07/01 00:03:04;;;;;;;6.65;1.92;;;14.60;99.90;;;;;;5039929;28;20072;-58
2022/07/01 00:05:30;;;;;;;6.97;1.85;;;14.70;99.90;;;;;;5040210;28;20199;-58
2022/07/01 00:07:56;;;;;;;6.72;2.47;;;14.70;99.90;;;;;;5039728;28;20067;-58
2022/07/01 00:10:21;;;;;;;7.93;1.77;;;14.60;99.90;;;;;;5041541;28;20119;-58
2022/07/01 00:12:47;;;;;;;5.50;1.65;;;14.80;99.90;;;;;;5040038;28;20061;-58
2022/07/01 00:15:13;;;;;;;6.65;1.95;;;14.70;99.90;;;;;;5040349;28;20105;-56
2022/07/01 00:17:39;;;;;;;6.78;1.83;;;14.80;99.90;;;;;;5041141;28;20124;-57
2022/07/01 00:20:09;;;;;;;5.68;1.77;;;14.70;99.90;;;;;;5039339;28;20463;-58
2022/07/01 00:22:35;;;;;;;6.63;1.80;;;14.70;99.90;;;;;;5006846;28;20073;-58
2022/07/01 00:25:01;;;;;;;6.57;1.88;;;14.90;99.90;;;;;;5018211;28;20050;-59
2022/07/01 00:27:26;;;;;;;6.63;1.70;;;14.80;99.90;;;;;;5021365;28;20057;-58
2022/07/01 00:29:52;;;;;;;6.28;1.98;;;14.80;99.90;;;;;;5020012;28;20049;-58
2022/07/01 00:32:18;;;;;;;5.82;1.98;;;14.90;99.90;;;;;;5020597;28;20042;-58
2022/07/01 00:34:43;;;;;;;4.63;1.67;;;14.80;99.90;;;;;;5020768;28;20046;-58
2022/07/01 00:37:09;;;;;;;6.13;1.77;;;14.90;99.90;;;;;;5019581;28;20054;-58
2022/07/01 00:39:36;;;;;;;5.55;1.80;;;15.10;99.90;;;;;;5021492;28;20120;-58
2022/07/01 00:42:05;;;;;;;7.32;1.88;;;14.90;99.90;;;;;;5019212;28;20053;-57
2022/07/01 00:44:32;;;;;;;8.70;2.05;;;14.90;99.90;;;;;;5020055;28;20121;-57
2022/07/01 00:47:02;;;;;;;6.57;1.83;;;14.90;99.90;;;;;;5019452;28;20038;-58
2022/07/01 00:49:28;;;;;;;6.13;1.67;;;15.00;99.90;;;;;;5018885;28;20049;-58
2022/07/01 00:51:54;;;;;;;4.30;1.30;;;15.00;99.90;;;;;;5030769;28;20049;-57
2022/07/01 00:54:21;;;;;;;4.95;1.30;;;14.90;99.90;;;;;;5039075;28;20100;-58
2022/07/01 00:56:47;;;;;;;5.78;1.25;;;14.80;99.90;;;;;;5040964;28;20092;-58
2022/07/01 00:59:13;;;;;;;4.63;1.25;;;14.90;99.90;;;;;;5038662;28;20171;-57
2022/07/01 01:01:39;;;;;;;3.55;1.20;;;14.80;99.90;;;;;;5040575;28;20073;-57
2022/07/01 01:04:05;;;;;;;4.25;1.40;;;14.90;99.90;;;;;;5039058;28;20616;-58
2022/07/01 01:06:31;;;;;;;4.95;1.63;;;14.80;99.90;;;;;;5039591;28;20076;-58
2022/07/01 01:08:57;;;;;;;6.40;1.58;;;14.90;99.90;;;;;;5039971;28;20091;-57
2022/07/01 01:11:22;;;;;;;5.45;1.42;;;14.80;99.90;;;;;;5038528;28;20744;-57
2022/07/01 01:13:48;;;;;;;4.20;1.40;;;15.00;99.90;;;;;;5038668;28;20057;-58
2022/07/01 01:16:22;;;;;;;5.68;2.28;;;14.90;99.90;;;;;;5038133;28;20072;-58
2022/07/01 01:18:48;;;;;;;4.95;1.73;;;14.90;99.90;;;;;;5040181;28;20080;-57
2022/07/01 01:21:15;;;;;;;7.47;1.75;;;15.00;99.90;;;;;;5032798;28;20514;-57
2022/07/01 01:23:41;;;;;;;5.13;1.70;;;15.00;99.90;;;;;;5019740;28;20034;-58
2022/07/01 01:26:18;;;;;;;4.20;1.67;;;15.00;99.90;;;;;;5018837;28;20052;-58
2022/07/01 01:28:44;;;;;;;5.32;2.10;;;14.90;99.90;;;;;;5018383;28;20350;-58
2022/07/01 01:31:10;;;;;;;5.78;2.15;;;14.90;99.90;;;;;;5020417;28;20041;-58
2022/07/01 01:33:37;;;;;;;5.38;2.17;;;14.90;99.90;;;;;;5018234;28;20041;-58
2022/07/01 01:36:03;;;;;;;5.93;2.17;;;14.90;99.90;;;;;;5020227;28;20046;-57
2022/07/01 01:38:29;;;;;;;5.00;1.88;;;14.90;99.90;;;;;;5018949;28;20066;-58
2022/07/01 01:40:55;;;;;;;5.00;2.17;;;14.80;99.90;;;;;;5019033;28;20138;-58
2022/07/01 01:43:21;;;;;;;5.15;2.60;;;14.90;99.90;;;;;;5019743;28;20042;-58
2022/07/01 01:45:46;;;;;;;5.65;2.60;;;14.90;99.90;;;;;;5017967;28;20438;-58
2022/07/01 01:48:12;;;;;;;6.00;2.53;;;14.90;99.90;;;;;;5020068;28;20045;-58
2022/07/01 01:50:38;;;;;;;4.78;2.25;;;14.90;99.90;;;;;;5018171;28;20061;-58
2022/07/01 01:53:03;;;;;;;5.57;2.88;;;15.00;99.90;;;;;;5039390;28;20041;-57
2022/07/01 01:55:29;;;;;;;5.78;2.70;;;15.00;99.90;;;;;;5037737;28;20049;-63
2022/07/01 01:57:55;;;;;;;6.95;3.13;;;15.00;99.90;;;;;;5038170;28;20038;-62
2022/07/01 02:00:20;;;;;;;7.28;2.60;;;15.10;99.90;;;;;;5037781;28;20041;-62
2022/07/01 02:02:46;;;;;;;6.90;3.22;;;15.00;99.90;;;;;;5037460;28;20053;-62
2022/07/01 02:05:13;;;;;;;7.20;2.72;;;15.20;99.90;;;;;;5039356;28;20486;-62
2022/07/01 02:07:39;;;;;;;6.90;2.75;;;15.20;99.90;;;;;;5037386;28;20037;-60
2022/07/01 02:10:06;;;;;;;5.43;2.22;;;15.20;99.90;;;;;;5039301;28;20092;-62
2022/07/01 02:12:32;;;;;;;4.63;2.33;;;15.10;99.90;;;;;;5037382;28;20128;-62
2022/07/01 02:14:57;;;;;;;8.00;3.38;;;15.10;99.90;;;;;;5038410;28;20419;-62
2022/07/01 02:17:25;;;;;;;5.18;2.50;;;15.20;99.90;;;;;;5038683;28;20410;-61
2022/07/01 02:19:50;;;;;;;8.32;2.78;;;15.10;99.90;;;;;;5037546;28;20079;-62
2022/07/01 02:22:16;;;;;;;5.90;2.88;;;15.20;99.90;;;;;;5024827;28;20045;-61
2022/07/01 02:24:43;;;;;;;7.93;2.92;;;15.20;99.90;;;;;;5017128;28;20112;-61
2022/07/01 02:27:09;;;;;;;7.38;3.15;;;15.10;99.90;;;;;;5019029;28;20042;-61
2022/07/01 02:29:35;;;;;;;6.55;2.30;;;15.10;99.90;;;;;;5017623;28;20030;-61
2022/07/01 02:32:01;;;;;;;7.60;3.00;;;15.20;99.90;;;;;;5019001;28;20326;-61
2022/07/01 02:34:26;;;;;;;7.25;2.53;;;15.20;99.90;;;;;;5018345;28;20442;-60
2022/07/01 02:36:55;;;;;;;6.18;2.75;;;15.10;99.90;;;;;;5018105;28;20037;-61
2022/07/01 02:39:21;;;;;;;5.57;2.65;;;15.20;99.90;;;;;;5019278;28;20486;-60
2022/07/01 02:44:31;;;;;;;7.85;3.28;;;15.20;99.90;;;;;;5018949;28;20056;-61
2022/07/01 02:46:57;;;;;;;7.53;2.72;;;15.20;99.90;;;;;;5017853;28;20042;-62
2022/07/01 02:49:23;;;;;;;5.15;2.58;;;15.10;99.90;;;;;;5018180;28;20065;-62
2022/07/01 02:51:49;;;;;;;7.47;2.85;;;15.10;99.90;;;;;;5028051;28;20045;-61
2022/07/01 02:54:14;;;;;;;7.22;2.50;;;15.10;99.90;;;;;;5036648;28;20037;-61
2022/07/01 02:56:40;;;;;;;6.10;2.65;;;15.10;99.90;;;;;;5038941;28;20038;-61
2022/07/01 02:59:06;;;;;;;6.95;3.00;;;15.10;99.90;;;;;;5036850;28;20061;-61
2022/07/01 03:01:31;;;;;;;8.80;3.22;;;15.00;99.90;;;;;;5038645;28;20097;-61
2022/07/01 03:03:57;;;;;;;6.95;3.40;;;15.00;99.90;;;;;;5037277;28;20092;-62
2022/07/01 03:06:22;;;;;;;6.85;3.03;;;14.90;99.90;;;;;;5038045;28;20067;-62
2022/07/01 03:08:48;;;;;;;7.03;2.75;;;14.90;99.90;;;;;;5039615;28;20088;-61
2022/07/01 03:11:14;;;;;;;6.10;3.20;;;15.00;99.90;;;;;;5041126;28;20044;-62
2022/07/01 03:13:39;;;;;;;7.15;3.58;;;14.90;99.90;;;;;;5042200;28;20083;-62
2022/07/01 03:16:05;;;;;;;8.38;3.78;;;14.90;99.90;;;;;;5040565;28;20050;-62
2022/07/01 03:18:31;;;;;;;8.85;3.70;;;14.80;99.90;;;;;;5042703;28;20045;-61
2022/07/01 03:20:56;;;;;;;7.57;3.53;;;14.90;99.90;;;;;;5037010;28;20041;-61
2022/07/01 03:23:22;;;;;;;7.97;3.50;;;14.80;99.90;;;;;;5022203;28;20045;-62
2022/07/01 03:25:48;;;;;;;6.72;3.50;;;14.80;99.90;;;;;;5021880;28;20042;-61
2022/07/01 03:28:14;;;;;;;7.70;3.95;;;14.80;99.90;;;;;;5021322;28;20129;-61
2022/07/01 03:30:39;;;;;;;9.30;4.40;;;14.80;99.90;;;;;;5022540;28;20060;-61
2022/07/01 03:33:05;;;;;;;7.57;3.45;;;14.80;99.90;;;;;;5020557;28;20066;-62
2022/07/01 03:35:39;;;;;;;10.30;4.35;;;14.70;99.90;;;;;;5022587;28;20050;-61
2022/07/01 03:38:05;;;;;;;9.02;3.60;;;14.80;99.90;;;;;;5020867;28;20050;-60
2022/07/01 03:40:32;;;;;;;6.97;3.70;;;14.80;99.90;;;;;;5022266;28;20042;-61
2022/07/01 03:42:58;;;;;;;8.70;3.47;;;14.80;99.90;;;;;;5021621;28;20061;-61
2022/07/01 03:45:23;;;;;;;6.20;2.90;;;14.70;99.90;;;;;;5019335;28;20053;-61
2022/07/01 03:47:50;;;;;;;7.63;4.03;;;14.70;99.90;;;;;;5022537;28;20050;-61
2022/07/01 03:50:21;;;;;;;8.35;3.83;;;14.80;99.90;;;;;;5020129;28;20042;-61
2022/07/01 03:52:47;;;;;;;7.03;3.87;;;14.90;99.90;;;;;;5039617;28;20042;-61
2022/07/01 03:55:13;;;;;;;7.28;4.13;;;14.80;99.90;;;;;;5040197;28;20049;-61
2022/07/01 03:57:38;;;;;;;8.88;3.88;;;14.90;99.90;;;;;;5041638;28;20049;-61
2022/07/01 04:00:07;;;;;;;9.50;4.72;;;14.90;99.90;;;;;;5041114;28;20049;-61
2022/07/01 04:02:32;;;;;;;8.27;4.68;;;15.00;99.90;;;;;;5040355;28;20044;-62
2022/07/01 04:04:58;;;;;;;9.23;4.70;;;15.00;99.90;;;;;;5041535;28;20030;-62
2022/07/01 04:07:25;;;;;;;13.88;4.90;;;14.90;99.90;;;;;;5039935;28;20496;-61
2022/07/01 04:09:52;;;;;;;9.13;4.15;;;15.00;99.90;;;;;;5041698;28;20048;-61
2022/07/01 04:12:18;;;;;;;10.15;4.78;;;15.00;99.90;;;;;;5039814;28;20037;-61
2022/07/01 04:14:44;;;;;;;8.35;4.57;;;15.00;99.90;;;;;;5039658;28;20541;-62
2022/07/01 04:17:11;;;;;;;8.05;4.53;;;15.10;99.90;;;;;;5040899;28;20065;-60
2022/07/01 04:19:37;;;;;;;8.27;4.32;;;15.00;99.90;;;;;;5039966;28;20060;-61
2022/07/01 04:24:47;;;;;;;10.95;4.43;;;15.00;99.90;;;;;;5019415;28;20076;-61
2022/07/01 04:27:13;;;;;;;9.38;5.20;;;15.00;99.90;;;;;;5021842;28;20045;-61
2022/07/01 04:29:39;;;;;;;9.98;5.00;;;15.00;99.90;;;;;;5020075;28;20034;-61
2022/07/01 04:32:05;;;;;;;9.05;5.65;;;15.00;99.90;;;;;;5020435;28;20046;-61
2022/07/01 04:34:31;;;;;;;8.30;5.07;;;15.00;99.90;;;;;;5019578;28;20451;-58
2022/07/01 04:36:57;;;;;;;12.98;7.03;;;15.00;99.90;;;;;;5019919;28;20088;-61
2022/07/01 04:39:22;;;;;;;9.60;5.22;;;15.10;99.90;;;;;;5021696;28;20049;-61
2022/07/01 04:42:00;;;;;;;11.38;5.47;;;15.00;99.90;;;;;;5019348;28;20049;-61
2022/07/01 04:44:31;;;;;;;11.18;6.28;;;15.10;99.90;;;;;;5020829;28;20042;-61
2022/07/01 04:46:58;;;;;;;8.83;5.20;;;15.00;99.90;;;;;;5018407;28;20056;-61
2022/07/01 04:49:24;;;;;;;11.45;6.38;;;15.00;99.90;;;;;;5020140;28;20058;-61
2022/07/01 04:51:50;;;;;;;11.55;5.85;;;15.00;99.90;;;;;;5030474;28;20044;-61
2022/07/01 04:54:17;;;;;;;9.65;5.00;;;15.00;99.90;;;;;;5038841;28;20037;-61
2022/07/01 04:56:42;;;;;;;11.32;6.18;;;15.00;99.90;;;;;;5040846;28;20461;-61
2022/07/01 04:59:08;;;;;;;10.35;5.55;;;15.00;99.90;;;;;;5038683;28;20049;-62
2022/07/01 05:01:34;;;;;;;10.55;5.85;;;15.00;99.90;;;;;;5039417;28;20565;-62
2022/07/01 05:04:00;;;;;;;12.23;6.32;;;14.90;99.90;;;;;;5039374;28;20037;-61
2022/07/01 05:06:26;;;;;;;10.20;5.57;;;14.90;99.90;;;;;;5039915;28;20045;-62
2022/07/01 05:08:51;;;;;;;11.63;6.10;;;15.00;99.90;;;;;;5040276;28;20410;-60
2022/07/01 05:11:17;;;;;;;11.95;6.30;;;15.10;99.90;;;;;;5037933;28;20132;-60
2022/07/01 05:13:43;;;;;;;12.27;6.90;;;15.00;99.90;;;;;;5040118;28;20057;-61
2022/07/01 05:16:09;;;;;;;11.60;6.40;;;15.00;99.90;;;;;;5038499;28;20107;-61
2022/07/01 05:24:06;;;;;;;13.18;7.03;;;15.00;99.90;;;;;;5018356;28;20057;-62
2022/07/01 05:26:31;;;;;;;9.85;6.82;;;15.00;99.90;;;;;;5019939;28;20074;-61
2022/07/01 05:28:57;;;;;;;8.32;5.28;;;15.10;99.90;;;;;;5017118;28;20053;-60
2022/07/01 05:31:23;;;;;;;11.82;7.88;;;15.10;99.90;;;;;;5019752;28;20152;-60
2022/07/01 05:33:49;;;;;;;13.52;8.32;;;15.10;99.90;;;;;;5017106;28;20046;-60
2022/07/01 05:36:15;;;;;;;12.65;7.38;;;15.10;99.90;;;;;;5019809;28;20038;-60
2022/07/01 05:38:41;;;;;;;11.57;6.65;;;15.20;99.90;;;;;;5019586;28;20042;-60
2022/07/01 05:41:07;;;;;;;12.75;7.80;;;15.30;99.90;;;;;;5016475;28;20548;-61
2022/07/01 05:43:33;;;;;;;12.73;8.57;;;15.20;99.90;;;;;;5015147;28;20037;-60
2022/07/01 05:45:59;;;;;;;15.60;10.20;;;15.20;99.90;;;;;;5014396;28;20406;-61
2022/07/01 05:48:25;;;;;;;16.27;9.43;;;15.20;99.90;;;;;;5016459;28;20540;-60
2022/07/01 05:50:51;;;;;;;17.27;10.43;;;15.30;99.90;;;;;;5015861;28;20314;-60
2022/07/01 05:53:17;;;;;;;13.68;9.02;;;15.30;99.90;;;;;;5035052;28;20458;-61
2022/07/01 05:55:43;;;;;;;20.02;12.05;;;15.40;99.90;;;;;;5035388;28;20065;-61
2022/07/01 05:58:13;;;;;;;17.55;12.60;;;15.30;99.90;;;;;;5034582;28;20099;-59
2022/07/01 06:00:42;;;;;;;20.08;10.60;;;15.40;99.90;;;;;;5036004;28;20080;-61
2022/07/01 06:03:14;;;;;;;17.45;11.13;;;15.40;99.90;;;;;;5033918;28;20116;-61
2022/07/01 06:05:41;;;;;;;17.85;11.23;;;15.40;99.90;;;;;;5035449;28;20068;-60
2022/07/01 06:08:07;;;;;;;20.98;13.30;;;15.50;99.90;;;;;;5034082;28;20041;-60
2022/07/01 06:10:34;;;;;;;20.02;11.70;;;15.60;99.90;;;;;;5033783;28;20049;-60
2022/07/01 06:13:00;;;;;;;16.92;10.90;;;15.60;99.90;;;;;;5034665;28;20096;-59
2022/07/01 06:15:26;;;;;;;20.85;13.00;;;15.70;99.90;;;;;;5033874;28;20053;-60
2022/07/01 06:17:53;;;;;;;20.13;13.10;;;15.70;99.90;;;;;;5035204;28;20041;-60
2022/07/01 06:20:19;;;;;;;18.95;12.65;;;15.80;99.90;;;;;;5033504;28;20046;-59
2022/07/01 06:22:45;;;;;;;20.05;12.90;;;15.90;99.90;;;;;;5017053;28;20041;-59
2022/07/01 06:25:11;;;;;;;18.50;11.55;;;15.90;99.90;;;;;;5013644;28;20061;-59
2022/07/01 06:27:41;;;;;;;18.08;12.32;;;15.90;99.90;;;;;;5015266;28;20064;-60
2022/07/01 06:30:07;;;;;;;19.23;12.75;;;16.00;99.90;;;;;;5014654;28;20434;-60
2022/07/01 06:32:32;;;;;;;21.88;13.50;;;16.10;99.90;;;;;;5014114;28;20603;-60
2022/07/01 06:34:58;;;;;;;21.35;13.57;;;16.10;99.90;;;;;;5015438;28;20073;-60
2022/07/01 06:37:24;;;;;;;19.27;12.63;;;16.10;99.90;;;;;;5013582;28;20134;-60
2022/07/01 06:39:49;;;;;;;18.13;12.15;;;16.20;99.90;;;;;;5015832;28;20049;-60
2022/07/01 06:42:15;;;;;;;19.95;13.30;;;16.20;99.90;;;;;;5012190;28;20038;-60
2022/07/01 06:44:41;;;;;;;21.15;14.18;;;16.30;99.90;;;;;;5015056;28;20057;-60
2022/07/01 06:47:07;;;;;;;20.08;12.60;;;16.40;99.90;;;;;;5020981;28;21183;-60
2022/07/01 06:49:32;;;;;;;23.73;14.50;;;16.30;99.90;;;;;;5022027;28;20490;-60
2022/07/01 06:51:58;;;;;;;20.67;13.32;;;16.40;99.90;;;;;;5025745;28;20045;-60
2022/07/01 06:54:24;;;;;;;23.15;14.07;;;16.40;99.90;;;;;;5018972;28;20081;-60
2022/07/01 06:56:49;;;;;;;20.52;14.32;;;16.40;99.90;;;;;;5017401;28;20283;-60
2022/07/01 06:59:15;;;;;;;26.10;14.25;;;16.30;99.90;;;;;;5012637;28;20053;-60
2022/07/01 07:01:41;;;;;;;22.85;15.18;;;16.40;99.90;;;;;;5014173;28;20049;-61
2022/07/01 07:04:07;;;;;;;22.98;15.05;;;16.40;99.90;;;;;;5013704;28;20046;-60
2022/07/01 07:06:33;;;;;;;23.10;15.52;;;16.50;99.90;;;;;;5013579;28;20072;-61
2022/07/01 07:08:58;;;;;;;22.70;16.77;;;16.40;99.90;;;;;;5015450;28;20049;-60
2022/07/01 07:11:25;;;;;;;25.65;15.80;;;16.40;99.90;;;;;;5013713;28;20494;-60
2022/07/01 07:13:50;;;;;;;22.73;15.23;;;16.30;99.90;;;;;;5018259;28;20061;-60
2022/07/01 07:16:20;;;;;;;25.60;17.45;;;16.40;99.90;;;;;;5031645;28;20450;-59
2022/07/01 07:18:47;;;;;;;19.92;14.55;;;16.40;99.90;;;;;;5031525;28;20034;-61
2022/07/01 07:21:13;;;;;;;22.17;15.55;;;16.30;99.90;;;;;;5031815;28;20497;-60
2022/07/01 07:23:38;;;;;;;24.73;14.05;;;16.40;99.90;;;;;;5032979;28;20064;-60
2022/07/01 07:26:04;;;;;;;21.90;15.30;;;16.30;99.90;;;;;;5033830;28;20059;-60
2022/07/01 07:28:30;;;;;;;23.60;15.68;;;16.60;99.90;;;;;;5032081;28;20034;-60
2022/07/01 07:30:55;;;;;;;25.73;15.38;;;16.50;99.90;;;;;;5032757;28;20081;-61
2022/07/01 07:33:22;;;;;;;27.40;16.25;;;16.50;99.90;;;;;;5032333;28;20046;-60
2022/07/01 07:35:48;;;;;;;23.77;15.50;;;16.50;99.90;;;;;;5034198;28;20445;-60
2022/07/01 07:38:13;;;;;;;21.45;15.00;;;16.60;99.90;;;;;;5032762;28;20044;-60
2022/07/01 07:40:39;;;;;;;24.08;16.30;;;16.60;99.90;;;;;;5032972;28;20469;-60
2022/07/01 07:43:07;;;;;;;24.30;14.77;;;16.70;99.90;;;;;;5033428;28;20038;-61
2022/07/01 07:45:32;;;;;;;22.08;15.90;;;16.80;99.90;;;;;;5031941;28;20054;-60
2022/07/01 07:47:59;;;;;;;21.90;15.43;;;17.00;99.90;;;;;;5033954;28;20076;-60
2022/07/01 07:50:25;;;;;;;23.58;15.85;;;16.80;99.90;;;;;;5031885;28;20101;-59
2022/07/01 07:52:50;;;;;;;24.05;14.63;;;16.70;99.90;;;;;;5033587;28;20116;-59
2022/07/01 07:55:16;;;;;;;21.90;15.13;;;16.80;99.90;;;;;;5035923;28;20038;-59
2022/07/01 07:57:42;;;;;;;20.13;14.18;;;16.80;99.90;;;;;;5037041;28;20038;-60
2022/07/01 08:00:11;;;;;;;25.33;16.95;;;16.80;99.90;;;;;;5037040;28;20033;-60
2022/07/01 08:02:37;;;;;;;21.63;14.25;;;16.90;99.90;;;;;;5036002;28;20041;-60
2022/07/01 08:05:03;;;;;;;18.95;12.70;;;16.90;99.90;;;;;;5037400;28;20083;-59
2022/07/01 08:07:29;;;;;;;23.50;14.20;;;17.00;99.90;;;;;;5035705;28;20045;-60
2022/07/01 08:09:55;;;;;;;22.13;14.77;;;17.10;99.90;;;;;;5037494;28;20057;-60
2022/07/01 08:12:21;;;;;;;18.95;13.65;;;17.10;99.90;;;;;;5035002;28;20041;-60
2022/07/01 08:14:48;;;;;;;21.25;15.85;;;17.30;99.90;;;;;;5037215;28;20053;-61
2022/07/01 08:17:13;;;;;;;19.95;13.40;;;17.50;99.90;;;;;;5036699;28;20094;-60
2022/07/01 08:19:39;;;;;;;22.73;15.20;;;17.60;99.90;;;;;;5037555;28;20092;-60
2022/07/01 08:22:06;;;;;;;19.73;13.98;;;17.80;99.90;;;;;;5027897;28;20054;-60
2022/07/01 08:24:32;;;;;;;19.23;12.40;;;17.90;99.90;;;;;;5019904;28;20050;-60
2022/07/01 08:26:57;;;;;;;17.23;11.98;;;17.70;99.90;;;;;;5021334;28;20053;-60
2022/07/01 08:29:23;;;;;;;14.48;10.02;;;17.60;99.90;;;;;;5019926;28;20101;-60
2022/07/01 08:31:49;;;;;;;16.67;10.52;;;17.60;99.90;;;;;;5021238;28;20054;-61
2022/07/01 08:34:15;;;;;;;17.73;11.18;;;17.80;99.90;;;;;;5020510;28;20506;-60
2022/07/01 08:36:41;;;;;;;15.25;10.30;;;17.70;99.90;;;;;;5019705;28;20098;-60
2022/07/01 08:39:06;;;;;;;16.05;9.98;;;17.80;99.90;;;;;;5021454;28;20057;-60
2022/07/01 08:41:33;;;;;;;15.10;10.55;;;17.90;99.90;;;;;;5018082;28;20057;-61
2022/07/01 08:43:58;;;;;;;12.10;8.25;;;18.00;99.90;;;;;;5025516;28;20080;-61
2022/07/01 08:46:27;;;;;;;16.90;9.30;;;18.20;99.90;;;;;;5028530;28;20045;-61
2022/07/01 08:48:53;;;;;;;13.13;9.23;;;18.40;99.90;;;;;;5035867;28;20527;-61
2022/07/01 08:51:19;;;;;;;12.27;6.60;;;18.50;99.90;;;;;;5038239;28;20124;-60
2022/07/01 08:53:44;;;;;;;9.80;6.20;;;18.60;99.90;;;;;;5038599;28;20041;-61
2022/07/01 08:58:55;;;;;;;13.00;6.70;;;18.80;99.90;;;;;;5038298;28;20107;-61
2022/07/01 09:01:24;;;;;;;15.65;7.85;;;18.40;99.90;;;;;;5040736;28;20046;-61
2022/07/01 09:03:54;;;;;;;13.02;7.20;;;18.70;99.90;;;;;;5039179;28;20050;-60
2022/07/01 09:06:28;;;;;;;13.68;7.05;;;18.60;99.90;;;;;;5039024;28;20068;-61
2022/07/01 09:09:09;;;;;;;13.50;7.72;;;18.80;99.90;;;;;;5040178;28;20073;-61
2022/07/01 09:11:35;;;;;;;14.35;7.70;;;18.90;99.90;;;;;;5038495;28;20041;-61
2022/07/01 09:14:14;;;;;;;14.55;7.80;;;19.10;99.90;;;;;;5040133;28;20053;-61
2022/07/01 09:16:41;;;;;;;14.93;7.97;;;19.00;99.90;;;;;;5038927;28;20034;-61
2022/07/01 09:19:07;;;;;;;12.43;7.30;;;19.20;99.90;;;;;;5039364;28;20052;-60
2022/07/01 09:21:33;;;;;;;13.45;7.82;;;19.20;99.90;;;;;;5031043;28;20042;-59
2022/07/01 09:24:21;;;;;;;10.45;6.72;;;19.10;99.90;;;;;;5018729;28;20037;-60
2022/07/01 09:27:06;;;;;;;11.25;6.60;;;19.20;99.90;;;;;;5020543;28;20042;-61
2022/07/01 09:29:37;;;;;;;16.17;6.70;;;18.70;99.90;;;;;;5019051;28;20049;-60
2022/07/01 09:32:06;;;;;;;10.52;5.80;;;18.70;99.90;;;;;;5019308;28;20041;-62
2022/07/01 09:34:39;;;;;;;11.35;5.70;;;18.70;99.90;;;;;;5019926;28;20072;-60
2022/07/01 09:37:05;;;;;;;9.23;4.20;;;18.90;99.90;;;;;;5018288;28;20049;-61
2022/07/01 09:39:45;;;;;;;11.10;3.75;;;19.00;99.90;;;;;;5020241;28;20042;-61
2022/07/01 09:42:11;;;;;;;8.25;3.38;;;19.20;99.90;;;;;;5018423;28;20057;-58
2022/07/01 09:44:52;;;;;;;11.90;2.95;;;18.80;99.90;;;;;;5019473;28;20045;-60
2022/07/01 09:47:17;;;;;;;8.63;2.67;;;18.50;99.90;;;;;;5019422;28;20061;-61
2022/07/01 09:49:43;;;;;;;8.48;2.20;;;18.70;99.90;;;;;;5018252;28;20038;-60
2022/07/01 09:52:09;;;;;;;5.72;2.35;;;18.80;99.90;;;;;;5032200;28;20133;-60
2022/07/01 09:54:36;;;;;;;7.40;2.63;;;19.10;99.90;;;;;;5037800;28;20042;-61
2022/07/01 09:57:02;;;;;;;9.00;2.50;;;19.40;99.90;;;;;;5039512;28;20055;-61
2022/07/01 09:59:28;;;;;;;8.63;2.80;;;19.60;99.90;;;;;;5037772;28;20037;-60
2022/07/01 10:01:53;;;;;;;10.20;3.40;;;19.80;99.90;;;;;;5038650;28;20125;-61
2022/07/01 10:04:20;;;;;;;7.55;2.58;;;19.80;99.90;;;;;;5039051;28;20042;-61
2022/07/01 10:07:10;;;;;;;8.95;2.90;;;19.50;99.90;;;;;;5038083;28;20045;-61
2022/07/01 10:09:54;;;;;;;6.80;2.28;;;19.60;99.90;;;;;;5039579;28;20075;-61
2022/07/01 10:12:34;;;;;;;7.68;2.38;;;19.50;99.90;;;;;;5037795;28;20041;-60
2022/07/01 10:15:02;;;;;;;6.45;2.25;;;19.40;99.90;;;;;;5038082;28;20057;-61
2022/07/01 10:17:34;;;;;;;6.70;2.55;;;19.40;99.90;;;;;;5037918;28;20049;-60
2022/07/01 10:20:18;;;;;;;8.30;2.15;;;19.80;99.90;;;;;;5036433;28;20093;-60
2022/07/01 10:22:45;;;;;;;7.68;2.83;;;20.20;99.90;;;;;;5033424;28;20043;-59
2022/07/01 10:25:50;;;;;;;8.00;2.70;;;20.10;99.90;;;;;;5031393;28;20073;-60
2022/07/01 10:28:25;;;;;;;8.10;2.53;;;20.30;99.90;;;;;;4967061;28;20573;-56
2022/07/01 10:31:02;;;;;;;9.05;2.72;;;20.30;99.90;;;;;;4968193;28;20047;-59
2022/07/01 10:33:31;;;;;;;7.30;2.05;;;20.10;99.90;;;;;;5000701;28;20053;-59
2022/07/01 10:36:08;;;;;;;8.68;3.03;;;19.90;99.90;;;;;;5023083;28;20092;-60
2022/07/01 10:38:33;;;;;;;7.55;2.47;;;19.90;99.90;;;;;;5027255;28;20044;-61
2022/07/01 10:41:12;;;;;;;7.47;2.33;;;19.80;99.90;;;;;;5037044;28;20075;-61
2022/07/01 10:43:41;;;;;;;10.85;3.80;;;19.70;99.90;;;;;;5037486;28;20091;-61
2022/07/01 10:46:07;;;;;;;12.38;3.70;;;19.40;99.90;;;;;;5036917;28;20480;-60
2022/07/01 10:48:34;;;;;;;10.65;3.15;;;19.10;99.90;;;;;;5038764;28;20041;-59
2022/07/01 10:51:00;;;;;;;12.90;3.40;;;18.50;99.90;;;;;;5036865;28;20048;-59
2022/07/01 10:53:45;;;;;;;9.63;2.60;;;17.90;99.90;;;;;;5037596;28;20037;-59
2022/07/01 10:56:17;;;;;;;8.32;2.40;;;17.70;99.90;;;;;;5030709;28;20037;-60
2022/07/01 10:58:43;;;;;;;7.95;1.90;;;17.30;99.90;;;;;;5026567;28;20048;-60
2022/07/01 11:01:08;;;;;;;5.20;1.90;;;17.20;99.90;;;;;;5027367;28;20532;-59
2022/07/01 11:03:36;;;;;;;6.72;1.50;;;16.80;99.90;;;;;;5030130;28;20057;-59
2022/07/01 11:06:02;;;;;;;7.15;1.75;;;16.80;99.90;;;;;;5033901;28;20077;-59
2022/07/01 11:08:28;;;;;;;6.13;1.85;;;16.80;99.90;;;;;;5035083;28;20068;-58
2022/07/01 11:10:57;;;;;;;4.65;1.52;;;16.90;99.90;;;;;;5034377;28;20045;-59
2022/07/01 11:13:24;;;;;;;6.20;1.42;;;17.00;99.90;;;;;;5034933;28;20053;-59
2022/07/01 11:15:50;;;;;;;5.18;1.42;;;17.10;99.90;;;;;;5034998;28;20049;-59
2022/07/01 11:18:16;;;;;;;5.53;1.48;;;17.10;99.90;;;;;;5037164;28;20748;-58
2022/07/01 11:20:42;;;;;;;7.57;1.85;;;17.00;99.90;;;;;;5034782;28;20045;-59
2022/07/01 11:23:08;;;;;;;4.70;1.58;;;17.00;99.90;;;;;;5036802;28;20036;-59
2022/07/01 11:25:34;;;;;;;7.15;1.50;;;17.20;99.90;;;;;;5037508;28;20030;-59
2022/07/01 11:27:59;;;;;;;8.07;1.50;;;17.20;99.90;;;;;;5037082;28;20049;-59
2022/07/01 11:30:26;;;;;;;7.38;1.65;;;17.30;99.90;;;;;;5042429;28;20104;-59
2022/07/01 11:32:54;;;;;;;7.72;1.70;;;17.40;99.90;;;;;;5039992;28;20050;-59
2022/07/01 11:41:03;;;;;;;4.20;1.30;;;17.90;99.90;;;;;;5040618;28;20464;-60
2022/07/01 11:43:33;;;;;;;5.25;1.60;;;18.00;99.90;;;;;;5041849;28;20045;-59
2022/07/01 11:46:01;;;;;;;6.38;1.80;;;18.30;99.90;;;;;;5039852;28;20045;-59
2022/07/01 11:48:39;;;;;;;6.47;2.00;;;18.90;99.90;;;;;;5041569;28;20089;-59
2022/07/01 11:51:11;;;;;;;5.45;2.13;;;19.20;99.90;;;;;;5040558;28;20052;-59
2022/07/01 11:53:42;;;;;;;6.30;2.10;;;19.30;99.90;;;;;;5040381;28;20045;-60
2022/07/01 11:56:08;;;;;;;9.15;2.35;;;19.00;99.90;;;;;;5040625;28;20049;-60
2022/07/01 11:59:01;;;;;;;6.85;2.22;;;18.90;99.90;;;;;;5033184;28;20045;-60
2022/07/01 12:01:35;;;;;;;6.80;2.20;;;18.90;99.90;;;;;;5029682;28;21268;-60
2022/07/01 12:04:03;;;;;;;5.97;1.70;;;18.60;99.90;;;;;;5030263;28;20045;-58
2022/07/01 12:06:29;;;;;;;6.38;2.10;;;18.50;99.90;;;;;;5028692;28;20046;-60
2022/07/01 12:08:56;;;;;;;5.85;2.00;;;18.70;99.90;;;;;;5031193;28;20406;-60
2022/07/01 12:11:24;;;;;;;6.70;1.77;;;18.90;99.90;;;;;;5022178;28;20062;-60
2022/07/01 12:13:51;;;;;;;10.38;2.33;;;18.80;99.90;;;;;;5021067;28;20050;-59
2022/07/01 12:16:17;;;;;;;7.43;1.90;;;18.60;99.90;;;;;;5019868;28;20053;-60
2022/07/01 12:18:56;;;;;;;7.05;1.73;;;18.90;99.90;;;;;;5021291;28;20042;-59
2022/07/01 12:21:22;;;;;;;8.27;1.70;;;19.00;99.90;;;;;;5028004;28;20056;-59
2022/07/01 12:24:05;;;;;;;5.35;1.65;;;19.00;99.90;;;;;;5039879;28;20049;-59
2022/07/01 12:26:30;;;;;;;6.13;2.13;;;19.00;99.90;;;;;;5040948;28;20049;-60
2022/07/01 12:28:56;;;;;;;4.88;1.90;;;19.30;99.90;;;;;;5039113;28;20046;-59
2022/07/01 12:31:22;;;;;;;7.07;1.42;;;19.90;99.90;;;;;;5041074;28;20052;-59
2022/07/01 12:33:51;;;;;;;5.43;1.40;;;19.80;99.90;;;;;;5038365;28;20045;-59
2022/07/01 12:36:17;;;;;;;5.97;1.42;;;19.60;99.90;;;;;;5040432;28;20072;-59
2022/07/01 12:38:44;;;;;;;6.25;1.58;;;19.40;99.90;;;;;;5040917;28;20037;-59
2022/07/01 12:41:28;;;;;;;5.60;1.40;;;19.60;99.90;;;;;;5037708;28;20116;-59
2022/07/01 12:43:54;;;;;;;4.68;1.60;;;19.40;99.90;;;;;;5040537;28;20051;-59
2022/07/01 12:46:30;;;;;;;4.72;1.05;;;19.20;99.90;;;;;;5039293;28;20065;-59
2022/07/01 12:48:57;;;;;;;6.55;1.20;;;19.50;99.90;;;;;;5040582;28;20069;-59
2022/07/01 12:51:33;;;;;;;4.38;1.20;;;19.60;99.90;;;;;;5040360;28;20086;-59
2022/07/01 12:53:59;;;;;;;4.43;1.40;;;19.80;99.90;;;;;;5038941;28;20105;-59
2022/07/01 12:56:27;;;;;;;5.90;1.20;;;20.30;99.90;;;;;;5040922;28;20041;-59
2022/07/01 12:58:54;;;;;;;5.70;1.27;;;20.50;99.90;;;;;;5038715;28;20041;-59
2022/07/01 13:01:20;;;;;;;4.82;1.10;;;19.90;99.90;;;;;;5040530;28;20498;-60